sensor_id;sensor_type;location;lat;lon;timestamp;P1;durP1;ratioP1;P2;durP2;ratioP2
25349;SDS011;13302;48.796;11.978;2023-05-14T00:02:36;2.73;;;2.60;;
25349;SDS011;13302;48.796;11.978;2023-05-14T00:05:23;3.10;;;2.90;;
25349;SDS011;13302;48.796;11.978;2023-05-14T00:08:11;3.13;;;3.03;;
25349;SDS011;13302;48.796;11.978;2023-05-14T00:10:58;3.50;;;3.30;;
25349;SDS011;13302;48.796;11.978;2023-05-14T00:13:45;3.33;;;3.10;;
25349;SDS011;13302;48.796;11.978;2023-05-14T00:16:32;3.50;;;3.30;;
25349;SDS011;13302;48.796;11.978;2023-05-14T00:19:19;3.40;;;3.30;;
25349;SDS011;13302;48.796;11.978;2023-05-14T00:22:07;2.77;;;2.67;;
25349;SDS011;13302;48.796;11.978;2023-05-14T00:24:54;3.00;;;2.90;;
25349;SDS011;13302;48.796;11.978;2023-05-14T00:27:41;3.90;;;3.10;;
25349;SDS011;13302;48.796;11.978;2023-05-14T00:30:28;3.10;;;2.87;;
25349;SDS011;13302;48.796;11.978;2023-05-14T00:33:15;3.27;;;3.07;;
25349;SDS011;13302;48.796;11.978;2023-05-14T00:36:02;3.57;;;3.20;;
25349;SDS011;13302;48.796;11.978;2023-05-14T00:38:49;3.20;;;3.10;;
25349;SDS011;13302;48.796;11.978;2023-05-14T00:41:37;4.03;;;3.00;;
25349;SDS011;13302;48.796;11.978;2023-05-14T00:44:24;3.50;;;3.30;;
25349;SDS011;13302;48.796;11.978;2023-05-14T00:47:11;3.13;;;2.83;;
25349;SDS011;13302;48.796;11.978;2023-05-14T00:49:58;3.47;;;3.20;;
25349;SDS011;13302;48.796;11.978;2023-05-14T00:52:46;2.93;;;2.83;;
25349;SDS011;13302;48.796;11.978;2023-05-14T00:55:35;2.80;;;2.70;;
25349;SDS011;13302;48.796;11.978;2023-05-14T00:58:23;3.13;;;2.93;;
25349;SDS011;13302;48.796;11.978;2023-05-14T01:01:11;3.53;;;3.07;;
25349;SDS011;13302;48.796;11.978;2023-05-14T01:04:00;3.30;;;3.10;;
25349;SDS011;13302;48.796;11.978;2023-05-14T01:10:00;2.90;;;2.80;;
25349;SDS011;13302;48.796;11.978;2023-05-14T01:16:04;3.20;;;3.00;;
25349;SDS011;13302;48.796;11.978;2023-05-14T01:18:54;3.93;;;3.67;;
25349;SDS011;13302;48.796;11.978;2023-05-14T01:21:43;3.40;;;3.10;;
25349;SDS011;13302;48.796;11.978;2023-05-14T01:24:30;3.40;;;3.20;;
25349;SDS011;13302;48.796;11.978;2023-05-14T01:27:24;3.40;;;3.20;;
25349;SDS011;13302;48.796;11.978;2023-05-14T01:30:21;3.10;;;2.90;;
25349;SDS011;13302;48.796;11.978;2023-05-14T01:33:15;3.17;;;2.97;;
25349;SDS011;13302;48.796;11.978;2023-05-14T01:36:04;3.80;;;3.50;;
25349;SDS011;13302;48.796;11.978;2023-05-14T01:38:51;3.90;;;3.70;;
25349;SDS011;13302;48.796;11.978;2023-05-14T01:41:39;3.30;;;3.10;;
25349;SDS011;13302;48.796;11.978;2023-05-14T01:44:27;4.20;;;3.90;;
25349;SDS011;13302;48.796;11.978;2023-05-14T01:47:15;3.67;;;3.20;;
25349;SDS011;13302;48.796;11.978;2023-05-14T01:50:02;3.30;;;3.00;;
25349;SDS011;13302;48.796;11.978;2023-05-14T01:52:49;3.53;;;3.33;;
25349;SDS011;13302;48.796;11.978;2023-05-14T01:55:39;3.37;;;3.17;;
25349;SDS011;13302;48.796;11.978;2023-05-14T01:58:26;3.53;;;3.33;;
25349;SDS011;13302;48.796;11.978;2023-05-14T02:01:14;3.27;;;3.17;;
25349;SDS011;13302;48.796;11.978;2023-05-14T02:04:01;3.73;;;3.40;;
25349;SDS011;13302;48.796;11.978;2023-05-14T02:06:48;3.17;;;3.00;;
25349;SDS011;13302;48.796;11.978;2023-05-14T02:09:35;4.13;;;3.83;;
25349;SDS011;13302;48.796;11.978;2023-05-14T02:12:22;3.53;;;3.23;;
25349;SDS011;13302;48.796;11.978;2023-05-14T02:15:09;4.10;;;3.80;;
25349;SDS011;13302;48.796;11.978;2023-05-14T02:17:57;3.20;;;3.00;;
25349;SDS011;13302;48.796;11.978;2023-05-14T02:20:44;4.30;;;3.40;;
25349;SDS011;13302;48.796;11.978;2023-05-14T02:23:32;3.97;;;3.67;;
25349;SDS011;13302;48.796;11.978;2023-05-14T02:26:27;3.50;;;3.20;;
25349;SDS011;13302;48.796;11.978;2023-05-14T02:29:14;3.40;;;3.20;;
25349;SDS011;13302;48.796;11.978;2023-05-14T02:32:01;3.90;;;3.70;;
25349;SDS011;13302;48.796;11.978;2023-05-14T02:34:49;3.83;;;3.57;;
25349;SDS011;13302;48.796;11.978;2023-05-14T02:37:36;3.37;;;3.17;;
25349;SDS011;13302;48.796;11.978;2023-05-14T02:40:23;3.43;;;3.23;;
25349;SDS011;13302;48.796;11.978;2023-05-14T02:43:11;3.60;;;3.40;;
25349;SDS011;13302;48.796;11.978;2023-05-14T02:45:58;3.50;;;3.30;;
25349;SDS011;13302;48.796;11.978;2023-05-14T02:48:45;3.53;;;3.33;;
25349;SDS011;13302;48.796;11.978;2023-05-14T02:51:32;3.23;;;3.03;;
25349;SDS011;13302;48.796;11.978;2023-05-14T02:54:19;3.60;;;3.30;;
25349;SDS011;13302;48.796;11.978;2023-05-14T02:57:06;3.33;;;3.13;;
25349;SDS011;13302;48.796;11.978;2023-05-14T02:59:53;3.50;;;3.30;;
25349;SDS011;13302;48.796;11.978;2023-05-14T03:02:41;3.07;;;2.87;;
25349;SDS011;13302;48.796;11.978;2023-05-14T03:05:29;3.40;;;3.20;;
25349;SDS011;13302;48.796;11.978;2023-05-14T03:08:16;3.40;;;3.20;;
25349;SDS011;13302;48.796;11.978;2023-05-14T03:11:03;3.00;;;2.80;;
25349;SDS011;13302;48.796;11.978;2023-05-14T03:13:51;3.10;;;3.00;;
25349;SDS011;13302;48.796;11.978;2023-05-14T03:16:38;3.10;;;2.90;;
25349;SDS011;13302;48.796;11.978;2023-05-14T03:19:28;3.47;;;3.17;;
25349;SDS011;13302;48.796;11.978;2023-05-14T03:22:15;3.63;;;3.43;;
25349;SDS011;13302;48.796;11.978;2023-05-14T03:25:02;3.40;;;3.20;;
25349;SDS011;13302;48.796;11.978;2023-05-14T03:27:49;3.93;;;3.63;;
25349;SDS011;13302;48.796;11.978;2023-05-14T03:30:36;3.37;;;3.17;;
25349;SDS011;13302;48.796;11.978;2023-05-14T03:33:23;3.20;;;3.00;;
25349;SDS011;13302;48.796;11.978;2023-05-14T03:36:10;3.10;;;2.90;;
25349;SDS011;13302;48.796;11.978;2023-05-14T03:38:58;3.97;;;3.67;;
25349;SDS011;13302;48.796;11.978;2023-05-14T03:41:46;3.83;;;3.53;;
25349;SDS011;13302;48.796;11.978;2023-05-14T03:44:34;3.23;;;3.13;;
25349;SDS011;13302;48.796;11.978;2023-05-14T03:47:22;3.30;;;3.10;;
25349;SDS011;13302;48.796;11.978;2023-05-14T03:50:10;3.63;;;3.43;;
25349;SDS011;13302;48.796;11.978;2023-05-14T03:52:58;3.33;;;3.13;;
25349;SDS011;13302;48.796;11.978;2023-05-14T03:55:45;3.13;;;2.90;;
25349;SDS011;13302;48.796;11.978;2023-05-14T03:58:32;3.63;;;3.20;;
25349;SDS011;13302;48.796;11.978;2023-05-14T04:01:19;3.67;;;3.47;;
25349;SDS011;13302;48.796;11.978;2023-05-14T04:04:06;3.40;;;3.20;;
25349;SDS011;13302;48.796;11.978;2023-05-14T04:06:53;3.77;;;3.47;;
25349;SDS011;13302;48.796;11.978;2023-05-14T04:09:41;3.00;;;2.90;;
25349;SDS011;13302;48.796;11.978;2023-05-14T04:12:28;3.33;;;3.10;;
25349;SDS011;13302;48.796;11.978;2023-05-14T04:15:15;3.50;;;3.30;;
25349;SDS011;13302;48.796;11.978;2023-05-14T04:18:02;3.13;;;3.03;;
25349;SDS011;13302;48.796;11.978;2023-05-14T04:20:49;3.37;;;3.17;;
25349;SDS011;13302;48.796;11.978;2023-05-14T04:23:36;3.60;;;3.30;;
25349;SDS011;13302;48.796;11.978;2023-05-14T04:26:23;4.17;;;3.87;;
25349;SDS011;13302;48.796;11.978;2023-05-14T04:29:11;4.50;;;4.20;;
25349;SDS011;13302;48.796;11.978;2023-05-14T04:31:58;4.70;;;4.40;;
25349;SDS011;13302;48.796;11.978;2023-05-14T04:34:45;3.80;;;3.50;;
25349;SDS011;13302;48.796;11.978;2023-05-14T04:37:32;4.10;;;3.80;;
25349;SDS011;13302;48.796;11.978;2023-05-14T04:40:19;4.00;;;3.70;;
25349;SDS011;13302;48.796;11.978;2023-05-14T04:43:08;3.70;;;3.50;;
25349;SDS011;13302;48.796;11.978;2023-05-14T04:45:56;3.43;;;3.23;;
25349;SDS011;13302;48.796;11.978;2023-05-14T04:48:43;4.30;;;3.70;;
25349;SDS011;13302;48.796;11.978;2023-05-14T04:51:30;3.93;;;3.63;;
25349;SDS011;13302;48.796;11.978;2023-05-14T04:54:18;4.30;;;4.00;;
25349;SDS011;13302;48.796;11.978;2023-05-14T04:57:05;4.30;;;3.93;;
25349;SDS011;13302;48.796;11.978;2023-05-14T04:59:52;5.47;;;3.80;;
25349;SDS011;13302;48.796;11.978;2023-05-14T05:02:39;4.20;;;3.90;;
25349;SDS011;13302;48.796;11.978;2023-05-14T05:05:27;4.23;;;3.93;;
25349;SDS011;13302;48.796;11.978;2023-05-14T05:08:14;3.93;;;3.63;;
25349;SDS011;13302;48.796;11.978;2023-05-14T05:11:01;3.80;;;3.60;;
25349;SDS011;13302;48.796;11.978;2023-05-14T05:13:48;3.80;;;3.50;;
25349;SDS011;13302;48.796;11.978;2023-05-14T05:16:36;4.20;;;3.90;;
25349;SDS011;13302;48.796;11.978;2023-05-14T05:19:23;3.77;;;3.57;;
25349;SDS011;13302;48.796;11.978;2023-05-14T05:22:28;3.83;;;3.63;;
25349;SDS011;13302;48.796;11.978;2023-05-14T05:25:15;4.17;;;3.87;;
25349;SDS011;13302;48.796;11.978;2023-05-14T05:28:02;4.03;;;3.73;;
25349;SDS011;13302;48.796;11.978;2023-05-14T05:30:49;3.93;;;3.73;;
25349;SDS011;13302;48.796;11.978;2023-05-14T05:33:36;3.67;;;3.40;;
25349;SDS011;13302;48.796;11.978;2023-05-14T05:36:24;4.27;;;3.97;;
25349;SDS011;13302;48.796;11.978;2023-05-14T05:39:11;3.73;;;3.53;;
25349;SDS011;13302;48.796;11.978;2023-05-14T05:41:58;3.40;;;3.20;;
25349;SDS011;13302;48.796;11.978;2023-05-14T05:44:46;3.67;;;3.47;;
25349;SDS011;13302;48.796;11.978;2023-05-14T05:47:33;3.33;;;3.13;;
25349;SDS011;13302;48.796;11.978;2023-05-14T05:50:20;3.60;;;3.40;;
25349;SDS011;13302;48.796;11.978;2023-05-14T05:53:07;3.77;;;3.47;;
25349;SDS011;13302;48.796;11.978;2023-05-14T05:55:54;3.60;;;3.30;;
25349;SDS011;13302;48.796;11.978;2023-05-14T05:58:41;4.13;;;3.83;;
25349;SDS011;13302;48.796;11.978;2023-05-14T06:01:28;3.70;;;3.40;;
25349;SDS011;13302;48.796;11.978;2023-05-14T06:04:16;4.13;;;3.77;;
25349;SDS011;13302;48.796;11.978;2023-05-14T06:07:03;3.97;;;3.67;;
25349;SDS011;13302;48.796;11.978;2023-05-14T06:09:50;3.77;;;3.57;;
25349;SDS011;13302;48.796;11.978;2023-05-14T06:12:37;3.80;;;3.60;;
25349;SDS011;13302;48.796;11.978;2023-05-14T06:15:24;3.77;;;3.53;;
25349;SDS011;13302;48.796;11.978;2023-05-14T06:18:11;3.87;;;3.67;;
25349;SDS011;13302;48.796;11.978;2023-05-14T06:20:58;3.87;;;3.57;;
25349;SDS011;13302;48.796;11.978;2023-05-14T06:23:46;3.63;;;3.43;;
25349;SDS011;13302;48.796;11.978;2023-05-14T06:26:33;3.47;;;3.27;;
25349;SDS011;13302;48.796;11.978;2023-05-14T06:29:20;3.17;;;2.97;;
25349;SDS011;13302;48.796;11.978;2023-05-14T06:32:07;3.83;;;3.63;;
25349;SDS011;13302;48.796;11.978;2023-05-14T06:34:54;4.57;;;3.40;;
25349;SDS011;13302;48.796;11.978;2023-05-14T06:37:41;3.47;;;3.27;;
25349;SDS011;13302;48.796;11.978;2023-05-14T06:40:28;3.30;;;3.10;;
25349;SDS011;13302;48.796;11.978;2023-05-14T06:43:15;4.17;;;3.87;;
25349;SDS011;13302;48.796;11.978;2023-05-14T06:46:02;3.27;;;3.07;;
25349;SDS011;13302;48.796;11.978;2023-05-14T06:48:49;2.93;;;2.73;;
25349;SDS011;13302;48.796;11.978;2023-05-14T06:51:36;3.23;;;2.97;;
25349;SDS011;13302;48.796;11.978;2023-05-14T06:54:24;3.27;;;3.07;;
25349;SDS011;13302;48.796;11.978;2023-05-14T06:57:11;3.40;;;3.20;;
25349;SDS011;13302;48.796;11.978;2023-05-14T06:59:58;3.23;;;3.03;;
25349;SDS011;13302;48.796;11.978;2023-05-14T07:02:50;3.33;;;3.13;;
25349;SDS011;13302;48.796;11.978;2023-05-14T07:05:37;3.00;;;2.80;;
25349;SDS011;13302;48.796;11.978;2023-05-14T07:08:26;3.33;;;3.13;;
25349;SDS011;13302;48.796;11.978;2023-05-14T07:11:13;2.73;;;2.63;;
25349;SDS011;13302;48.796;11.978;2023-05-14T07:14:00;2.80;;;2.70;;
25349;SDS011;13302;48.796;11.978;2023-05-14T07:16:47;2.60;;;2.50;;
25349;SDS011;13302;48.796;11.978;2023-05-14T07:19:34;3.13;;;2.70;;
25349;SDS011;13302;48.796;11.978;2023-05-14T07:22:21;2.80;;;2.60;;
25349;SDS011;13302;48.796;11.978;2023-05-14T07:25:08;2.70;;;2.50;;
25349;SDS011;13302;48.796;11.978;2023-05-14T07:27:55;2.67;;;2.57;;
25349;SDS011;13302;48.796;11.978;2023-05-14T07:30:42;2.60;;;2.43;;
25349;SDS011;13302;48.796;11.978;2023-05-14T07:33:29;2.33;;;1.97;;
25349;SDS011;13302;48.796;11.978;2023-05-14T07:36:16;2.30;;;2.20;;
25349;SDS011;13302;48.796;11.978;2023-05-14T07:39:03;2.40;;;2.30;;
25349;SDS011;13302;48.796;11.978;2023-05-14T07:41:51;2.23;;;2.13;;
25349;SDS011;13302;48.796;11.978;2023-05-14T07:44:40;2.47;;;2.37;;
25349;SDS011;13302;48.796;11.978;2023-05-14T07:47:27;2.20;;;2.10;;
25349;SDS011;13302;48.796;11.978;2023-05-14T07:50:15;2.30;;;2.20;;
25349;SDS011;13302;48.796;11.978;2023-05-14T07:53:02;2.37;;;2.27;;
25349;SDS011;13302;48.796;11.978;2023-05-14T07:55:49;2.23;;;2.13;;
25349;SDS011;13302;48.796;11.978;2023-05-14T07:58:37;2.00;;;1.90;;
25349;SDS011;13302;48.796;11.978;2023-05-14T08:01:24;1.77;;;1.77;;
25349;SDS011;13302;48.796;11.978;2023-05-14T08:04:12;2.00;;;1.90;;
25349;SDS011;13302;48.796;11.978;2023-05-14T08:07:00;2.00;;;2.00;;
25349;SDS011;13302;48.796;11.978;2023-05-14T08:09:47;2.00;;;1.90;;
25349;SDS011;13302;48.796;11.978;2023-05-14T08:12:34;1.90;;;1.90;;
25349;SDS011;13302;48.796;11.978;2023-05-14T08:15:21;1.80;;;1.80;;
25349;SDS011;13302;48.796;11.978;2023-05-14T08:18:12;2.10;;;2.00;;
25349;SDS011;13302;48.796;11.978;2023-05-14T08:20:59;2.63;;;2.43;;
25349;SDS011;13302;48.796;11.978;2023-05-14T08:23:49;2.00;;;1.87;;
25349;SDS011;13302;48.796;11.978;2023-05-14T08:26:36;2.10;;;2.00;;
25349;SDS011;13302;48.796;11.978;2023-05-14T08:29:24;2.20;;;2.10;;
25349;SDS011;13302;48.796;11.978;2023-05-14T08:32:11;2.00;;;1.90;;
25349;SDS011;13302;48.796;11.978;2023-05-14T08:35:09;2.40;;;2.30;;
25349;SDS011;13302;48.796;11.978;2023-05-14T08:37:56;1.97;;;1.87;;
25349;SDS011;13302;48.796;11.978;2023-05-14T08:40:56;2.20;;;2.10;;
25349;SDS011;13302;48.796;11.978;2023-05-14T08:46:50;2.10;;;2.00;;
25349;SDS011;13302;48.796;11.978;2023-05-14T08:49:40;2.00;;;1.90;;
25349;SDS011;13302;48.796;11.978;2023-05-14T08:52:28;2.10;;;2.00;;
25349;SDS011;13302;48.796;11.978;2023-05-14T08:55:16;2.40;;;2.20;;
25349;SDS011;13302;48.796;11.978;2023-05-14T08:58:03;1.93;;;1.93;;
25349;SDS011;13302;48.796;11.978;2023-05-14T09:00:52;1.90;;;1.90;;
25349;SDS011;13302;48.796;11.978;2023-05-14T09:03:39;2.00;;;1.90;;
25349;SDS011;13302;48.796;11.978;2023-05-14T09:06:27;2.13;;;2.03;;
25349;SDS011;13302;48.796;11.978;2023-05-14T09:09:14;1.80;;;1.80;;
25349;SDS011;13302;48.796;11.978;2023-05-14T09:12:02;1.90;;;1.83;;
25349;SDS011;13302;48.796;11.978;2023-05-14T09:14:49;1.87;;;1.77;;
25349;SDS011;13302;48.796;11.978;2023-05-14T09:17:36;1.47;;;1.47;;
25349;SDS011;13302;48.796;11.978;2023-05-14T09:20:23;1.60;;;1.60;;
25349;SDS011;13302;48.796;11.978;2023-05-14T09:23:11;1.87;;;1.80;;
25349;SDS011;13302;48.796;11.978;2023-05-14T09:26:02;1.93;;;1.90;;
25349;SDS011;13302;48.796;11.978;2023-05-14T09:28:52;2.00;;;1.90;;
25349;SDS011;13302;48.796;11.978;2023-05-14T09:31:40;2.10;;;2.00;;
25349;SDS011;13302;48.796;11.978;2023-05-14T09:34:28;2.07;;;1.97;;
25349;SDS011;13302;48.796;11.978;2023-05-14T09:37:17;2.10;;;1.80;;
25349;SDS011;13302;48.796;11.978;2023-05-14T09:40:05;2.20;;;2.00;;
25349;SDS011;13302;48.796;11.978;2023-05-14T09:42:54;2.10;;;2.00;;
25349;SDS011;13302;48.796;11.978;2023-05-14T09:45:41;2.37;;;2.27;;
25349;SDS011;13302;48.796;11.978;2023-05-14T09:48:28;2.03;;;1.93;;
25349;SDS011;13302;48.796;11.978;2023-05-14T09:51:16;2.20;;;2.10;;
25349;SDS011;13302;48.796;11.978;2023-05-14T09:54:07;2.30;;;2.20;;
25349;SDS011;13302;48.796;11.978;2023-05-14T09:56:54;2.20;;;2.10;;
25349;SDS011;13302;48.796;11.978;2023-05-14T09:59:41;2.20;;;2.10;;
25349;SDS011;13302;48.796;11.978;2023-05-14T10:02:29;2.40;;;2.30;;
25349;SDS011;13302;48.796;11.978;2023-05-14T10:05:23;2.70;;;2.60;;
25349;SDS011;13302;48.796;11.978;2023-05-14T10:08:13;2.90;;;2.80;;
25349;SDS011;13302;48.796;11.978;2023-05-14T10:11:10;2.60;;;2.50;;
25349;SDS011;13302;48.796;11.978;2023-05-14T10:14:07;2.57;;;2.47;;
25349;SDS011;13302;48.796;11.978;2023-05-14T10:16:55;2.80;;;2.60;;
25349;SDS011;13302;48.796;11.978;2023-05-14T10:19:46;2.60;;;2.50;;
25349;SDS011;13302;48.796;11.978;2023-05-14T10:22:38;3.20;;;3.10;;
25349;SDS011;13302;48.796;11.978;2023-05-14T10:25:25;3.00;;;2.90;;
25349;SDS011;13302;48.796;11.978;2023-05-14T10:28:13;3.17;;;2.97;;
25349;SDS011;13302;48.796;11.978;2023-05-14T10:31:00;3.20;;;3.00;;
25349;SDS011;13302;48.796;11.978;2023-05-14T10:33:48;2.83;;;2.63;;
25349;SDS011;13302;48.796;11.978;2023-05-14T10:36:36;2.80;;;2.67;;
25349;SDS011;13302;48.796;11.978;2023-05-14T10:39:38;3.00;;;2.90;;
25349;SDS011;13302;48.796;11.978;2023-05-14T10:42:52;2.77;;;2.67;;
25349;SDS011;13302;48.796;11.978;2023-05-14T10:45:42;2.60;;;2.50;;
25349;SDS011;13302;48.796;11.978;2023-05-14T10:48:31;2.43;;;2.33;;
25349;SDS011;13302;48.796;11.978;2023-05-14T10:51:19;2.50;;;2.40;;
25349;SDS011;13302;48.796;11.978;2023-05-14T10:54:08;2.77;;;2.67;;
25349;SDS011;13302;48.796;11.978;2023-05-14T10:56:57;2.97;;;2.77;;
25349;SDS011;13302;48.796;11.978;2023-05-14T10:59:46;2.63;;;2.43;;
25349;SDS011;13302;48.796;11.978;2023-05-14T11:02:35;4.47;;;2.60;;
25349;SDS011;13302;48.796;11.978;2023-05-14T11:05:24;2.33;;;2.23;;
25349;SDS011;13302;48.796;11.978;2023-05-14T11:08:13;2.47;;;2.37;;
25349;SDS011;13302;48.796;11.978;2023-05-14T11:11:01;2.63;;;2.53;;
25349;SDS011;13302;48.796;11.978;2023-05-14T11:13:48;2.47;;;2.37;;
25349;SDS011;13302;48.796;11.978;2023-05-14T11:16:36;2.37;;;2.27;;
25349;SDS011;13302;48.796;11.978;2023-05-14T11:19:23;2.37;;;2.27;;
25349;SDS011;13302;48.796;11.978;2023-05-14T11:22:10;2.53;;;2.43;;
25349;SDS011;13302;48.796;11.978;2023-05-14T11:25:00;2.60;;;2.50;;
25349;SDS011;13302;48.796;11.978;2023-05-14T11:27:48;2.43;;;2.30;;
25349;SDS011;13302;48.796;11.978;2023-05-14T11:30:35;2.60;;;2.50;;
25349;SDS011;13302;48.796;11.978;2023-05-14T11:33:23;2.40;;;2.30;;
25349;SDS011;13302;48.796;11.978;2023-05-14T11:36:13;2.17;;;2.13;;
25349;SDS011;13302;48.796;11.978;2023-05-14T11:39:00;1.93;;;1.93;;
25349;SDS011;13302;48.796;11.978;2023-05-14T11:41:47;2.30;;;2.20;;
25349;SDS011;13302;48.796;11.978;2023-05-14T11:44:34;2.20;;;2.10;;
25349;SDS011;13302;48.796;11.978;2023-05-14T11:47:22;2.00;;;2.00;;
25349;SDS011;13302;48.796;11.978;2023-05-14T11:50:09;2.13;;;2.03;;
25349;SDS011;13302;48.796;11.978;2023-05-14T11:52:56;2.33;;;2.23;;
25349;SDS011;13302;48.796;11.978;2023-05-14T11:55:44;1.83;;;1.83;;
25349;SDS011;13302;48.796;11.978;2023-05-14T11:58:32;2.10;;;2.00;;
25349;SDS011;13302;48.796;11.978;2023-05-14T12:01:19;2.00;;;1.93;;
25349;SDS011;13302;48.796;11.978;2023-05-14T12:04:06;2.10;;;2.00;;
25349;SDS011;13302;48.796;11.978;2023-05-14T12:06:56;2.43;;;2.33;;
25349;SDS011;13302;48.796;11.978;2023-05-14T12:09:44;2.20;;;2.10;;
25349;SDS011;13302;48.796;11.978;2023-05-14T12:12:36;2.30;;;2.20;;
25349;SDS011;13302;48.796;11.978;2023-05-14T12:15:23;2.40;;;2.20;;
25349;SDS011;13302;48.796;11.978;2023-05-14T12:18:11;2.20;;;2.10;;
25349;SDS011;13302;48.796;11.978;2023-05-14T12:21:10;2.10;;;2.00;;
25349;SDS011;13302;48.796;11.978;2023-05-14T12:23:57;2.10;;;2.10;;
25349;SDS011;13302;48.796;11.978;2023-05-14T12:26:47;2.20;;;2.20;;
25349;SDS011;13302;48.796;11.978;2023-05-14T12:29:37;2.23;;;2.13;;
25349;SDS011;13302;48.796;11.978;2023-05-14T12:32:25;2.10;;;2.00;;
25349;SDS011;13302;48.796;11.978;2023-05-14T12:35:12;2.10;;;2.00;;
25349;SDS011;13302;48.796;11.978;2023-05-14T12:37:59;1.80;;;1.70;;
25349;SDS011;13302;48.796;11.978;2023-05-14T12:40:46;1.97;;;1.90;;
25349;SDS011;13302;48.796;11.978;2023-05-14T12:43:33;1.83;;;1.73;;
25349;SDS011;13302;48.796;11.978;2023-05-14T12:46:20;1.87;;;1.87;;
25349;SDS011;13302;48.796;11.978;2023-05-14T12:49:07;1.87;;;1.80;;
25349;SDS011;13302;48.796;11.978;2023-05-14T12:51:55;1.90;;;1.80;;
25349;SDS011;13302;48.796;11.978;2023-05-14T12:55:02;1.83;;;1.83;;
25349;SDS011;13302;48.796;11.978;2023-05-14T12:57:49;1.87;;;1.70;;
25349;SDS011;13302;48.796;11.978;2023-05-14T13:00:36;1.90;;;1.80;;
25349;SDS011;13302;48.796;11.978;2023-05-14T13:03:23;1.97;;;1.93;;
25349;SDS011;13302;48.796;11.978;2023-05-14T13:06:11;1.83;;;1.80;;
25349;SDS011;13302;48.796;11.978;2023-05-14T13:08:58;2.10;;;1.90;;
25349;SDS011;13302;48.796;11.978;2023-05-14T13:11:48;1.50;;;1.50;;
25349;SDS011;13302;48.796;11.978;2023-05-14T13:14:35;1.60;;;1.60;;
25349;SDS011;13302;48.796;11.978;2023-05-14T13:17:22;1.50;;;1.50;;
25349;SDS011;13302;48.796;11.978;2023-05-14T13:20:09;1.90;;;1.80;;
25349;SDS011;13302;48.796;11.978;2023-05-14T13:22:56;1.70;;;1.60;;
25349;SDS011;13302;48.796;11.978;2023-05-14T13:25:43;1.70;;;1.70;;
25349;SDS011;13302;48.796;11.978;2023-05-14T13:28:33;1.80;;;1.70;;
25349;SDS011;13302;48.796;11.978;2023-05-14T13:31:20;1.80;;;1.80;;
25349;SDS011;13302;48.796;11.978;2023-05-14T13:34:07;1.60;;;1.60;;
25349;SDS011;13302;48.796;11.978;2023-05-14T13:36:55;1.93;;;1.80;;
25349;SDS011;13302;48.796;11.978;2023-05-14T13:39:42;1.80;;;1.80;;
25349;SDS011;13302;48.796;11.978;2023-05-14T13:42:29;1.80;;;1.70;;
25349;SDS011;13302;48.796;11.978;2023-05-14T13:45:16;2.00;;;1.90;;
25349;SDS011;13302;48.796;11.978;2023-05-14T13:48:04;1.77;;;1.70;;
25349;SDS011;13302;48.796;11.978;2023-05-14T13:50:51;1.80;;;1.80;;
25349;SDS011;13302;48.796;11.978;2023-05-14T13:53:38;1.70;;;1.70;;
25349;SDS011;13302;48.796;11.978;2023-05-14T13:56:25;2.10;;;1.90;;
25349;SDS011;13302;48.796;11.978;2023-05-14T13:59:12;1.60;;;1.60;;
25349;SDS011;13302;48.796;11.978;2023-05-14T14:01:59;2.00;;;1.90;;
25349;SDS011;13302;48.796;11.978;2023-05-14T14:04:46;1.30;;;1.30;;
25349;SDS011;13302;48.796;11.978;2023-05-14T14:07:35;1.60;;;1.50;;
25349;SDS011;13302;48.796;11.978;2023-05-14T14:10:22;1.90;;;1.90;;
25349;SDS011;13302;48.796;11.978;2023-05-14T14:13:09;1.50;;;1.50;;
25349;SDS011;13302;48.796;11.978;2023-05-14T14:15:56;1.30;;;1.30;;
25349;SDS011;13302;48.796;11.978;2023-05-14T14:18:43;1.23;;;1.23;;
25349;SDS011;13302;48.796;11.978;2023-05-14T14:21:31;1.07;;;1.07;;
25349;SDS011;13302;48.796;11.978;2023-05-14T14:24:18;1.10;;;1.10;;
25349;SDS011;13302;48.796;11.978;2023-05-14T14:27:05;1.30;;;1.30;;
25349;SDS011;13302;48.796;11.978;2023-05-14T14:29:52;2.60;;;1.30;;
25349;SDS011;13302;48.796;11.978;2023-05-14T14:32:39;1.20;;;1.20;;
25349;SDS011;13302;48.796;11.978;2023-05-14T14:35:30;1.27;;;1.27;;
25349;SDS011;13302;48.796;11.978;2023-05-14T14:38:18;1.90;;;1.30;;
25349;SDS011;13302;48.796;11.978;2023-05-14T14:41:05;1.30;;;1.20;;
25349;SDS011;13302;48.796;11.978;2023-05-14T14:43:53;1.40;;;1.30;;
25349;SDS011;13302;48.796;11.978;2023-05-14T14:46:40;1.13;;;1.10;;
25349;SDS011;13302;48.796;11.978;2023-05-14T14:49:28;1.13;;;1.10;;
25349;SDS011;13302;48.796;11.978;2023-05-14T14:52:16;1.30;;;1.30;;
25349;SDS011;13302;48.796;11.978;2023-05-14T14:55:04;1.50;;;1.50;;
25349;SDS011;13302;48.796;11.978;2023-05-14T14:57:51;1.10;;;1.10;;
25349;SDS011;13302;48.796;11.978;2023-05-14T15:00:38;1.30;;;1.30;;
25349;SDS011;13302;48.796;11.978;2023-05-14T15:03:25;1.33;;;1.30;;
25349;SDS011;13302;48.796;11.978;2023-05-14T15:06:13;2.47;;;1.40;;
25349;SDS011;13302;48.796;11.978;2023-05-14T15:09:00;1.20;;;1.20;;
25349;SDS011;13302;48.796;11.978;2023-05-14T15:11:47;1.97;;;1.40;;
25349;SDS011;13302;48.796;11.978;2023-05-14T15:14:34;1.17;;;1.17;;
25349;SDS011;13302;48.796;11.978;2023-05-14T15:17:21;1.07;;;1.07;;
25349;SDS011;13302;48.796;11.978;2023-05-14T15:20:08;1.17;;;1.10;;
25349;SDS011;13302;48.796;11.978;2023-05-14T15:22:56;1.53;;;1.20;;
25349;SDS011;13302;48.796;11.978;2023-05-14T15:25:43;1.23;;;1.23;;
25349;SDS011;13302;48.796;11.978;2023-05-14T15:28:30;1.50;;;1.50;;
25349;SDS011;13302;48.796;11.978;2023-05-14T15:31:17;1.43;;;1.43;;
25349;SDS011;13302;48.796;11.978;2023-05-14T15:34:04;1.30;;;1.30;;
25349;SDS011;13302;48.796;11.978;2023-05-14T15:36:51;1.47;;;1.20;;
25349;SDS011;13302;48.796;11.978;2023-05-14T15:39:38;1.97;;;1.87;;
25349;SDS011;13302;48.796;11.978;2023-05-14T15:42:25;2.10;;;2.00;;
25349;SDS011;13302;48.796;11.978;2023-05-14T15:45:12;2.90;;;2.80;;
25349;SDS011;13302;48.796;11.978;2023-05-14T15:48:00;2.47;;;2.37;;
25349;SDS011;13302;48.796;11.978;2023-05-14T15:50:47;2.40;;;2.30;;
25349;SDS011;13302;48.796;11.978;2023-05-14T15:53:35;2.60;;;2.13;;
25349;SDS011;13302;48.796;11.978;2023-05-14T15:56:22;2.70;;;2.50;;
25349;SDS011;13302;48.796;11.978;2023-05-14T15:59:09;2.13;;;2.03;;
25349;SDS011;13302;48.796;11.978;2023-05-14T16:01:56;2.03;;;2.03;;
25349;SDS011;13302;48.796;11.978;2023-05-14T16:04:43;2.07;;;1.97;;
25349;SDS011;13302;48.796;11.978;2023-05-14T16:07:30;1.90;;;1.90;;
25349;SDS011;13302;48.796;11.978;2023-05-14T16:10:18;1.60;;;1.60;;
25349;SDS011;13302;48.796;11.978;2023-05-14T16:13:06;2.23;;;2.13;;
25349;SDS011;13302;48.796;11.978;2023-05-14T16:15:53;2.30;;;2.20;;
25349;SDS011;13302;48.796;11.978;2023-05-14T16:18:40;2.00;;;1.90;;
25349;SDS011;13302;48.796;11.978;2023-05-14T16:21:28;2.37;;;2.17;;
25349;SDS011;13302;48.796;11.978;2023-05-14T16:24:16;2.40;;;2.30;;
25349;SDS011;13302;48.796;11.978;2023-05-14T16:27:04;2.23;;;2.03;;
25349;SDS011;13302;48.796;11.978;2023-05-14T16:29:51;2.70;;;2.60;;
25349;SDS011;13302;48.796;11.978;2023-05-14T16:32:38;2.30;;;2.20;;
25349;SDS011;13302;48.796;11.978;2023-05-14T16:35:27;2.20;;;2.10;;
25349;SDS011;13302;48.796;11.978;2023-05-14T16:38:14;2.00;;;1.90;;
25349;SDS011;13302;48.796;11.978;2023-05-14T16:41:01;2.00;;;1.90;;
25349;SDS011;13302;48.796;11.978;2023-05-14T16:43:49;2.00;;;1.90;;
25349;SDS011;13302;48.796;11.978;2023-05-14T16:46:38;2.23;;;2.13;;